Alban, Wisconsin
Current Conditions -  °F | °C
As of 1:55 PM on Monday 24 Nov 2014 (Local Time) from KSTE Reporting Station
Unknown Precip Unknown Precip  
Wind Chill: 22°   Ceiling: 600
Heat Index: 30°   Visibility: 0.5mi
Dew Point: 30°   Wind: 9mph
Humidity: 98%   Direction: 290°WNW
Pressure: 29.22"   Gusts: 17mph
Location:  44.6794°N, 89.3392°W
Report Text: KSTE 241955Z AUTO 29008G15KT 1/2SM UP OVC006 M01/M01 A2922 RMK AO2 P0001 T10101013
Loading
Personal Weather Stations






























Interactive Weather Map New forecast layout! Learn more

10-Day Weather Forecast

Advertisements
Track Severe Weather on mobile